Time;durP1;ratioP1;P1;durP2;ratioP2;P2;SDS_P1;SDS_P2;PMS_P1;PMS_P2;Temp;Humidity;BMP_temperature;BMP_pressure;BME280_temperature;BME280_humidity;BME280_pressure;Samples;Min_cycle;Max_cycle;Signal;HPM_P1;HPM_P2
2022/11/02 06:14:11;;;;;;;;;2.67;1.00;;;;;18.77;60.37;102006.22;5052827;28;45910;-77
2022/11/02 06:16:36;;;;;;;;;0.00;0.00;;;;;18.83;60.83;102002.22;5038928;27;45515;-78
2022/11/02 06:19:02;;;;;;;;;1.00;1.00;;;;;19.11;60.70;102000.31;5051168;27;48323;-76
2022/11/02 06:21:27;;;;;;;;;1.00;0.00;;;;;19.37;59.84;102002.97;5037281;27;45482;-76
2022/11/02 06:23:53;;;;;;;;;0.00;0.00;;;;;19.63;59.98;102005.63;5046950;27;48770;-78
2022/11/02 06:26:18;;;;;;;;;1.00;1.00;;;;;19.93;59.15;102003.47;5047251;27;45494;-76
2022/11/02 06:28:43;;;;;;;;;0.00;0.00;;;;;20.19;58.82;102006.94;5029145;27;45368;-79
2022/11/02 06:31:09;;;;;;;;;0.00;0.00;;;;;20.45;58.69;102009.53;5045795;27;45425;-78
2022/11/02 06:33:34;;;;;;;;;0.67;0.00;;;;;20.76;58.29;102019.78;5048493;27;45392;-78
2022/11/02 06:35:59;;;;;;;;;2.33;1.00;;;;;21.01;57.73;102018.75;5047002;27;45743;-77
2022/11/02 06:38:25;;;;;;;;;1.00;0.33;;;;;21.22;57.27;102018.06;5044942;27;45268;-76
2022/11/02 06:41:05;;;;;;;;;1.00;1.00;;;;;21.44;56.78;102028.00;5047578;27;45385;-76
2022/11/02 06:43:31;;;;;;;;;1.00;1.00;;;;;21.64;56.44;102033.63;5037660;27;45563;-78
2022/11/02 06:45:57;;;;;;;;;1.33;0.00;;;;;21.82;56.14;102030.41;5029256;27;45453;-79
2022/11/02 06:48:25;;;;;;;;;1.33;1.33;;;;;21.97;56.04;102036.41;5037420;27;45395;-82
2022/11/02 06:50:50;;;;;;;;;0.00;0.00;;;;;22.13;55.50;102037.84;5046839;27;45343;-82
2022/11/02 06:53:15;;;;;;;;;0.33;0.33;;;;;22.27;55.81;102039.41;5051285;27;58673;-76
2022/11/02 06:55:41;;;;;;;;;0.00;0.00;;;;;22.37;55.62;102040.34;5026241;28;45401;-79
2022/11/02 06:58:06;;;;;;;;;1.00;1.00;;;;;22.43;54.97;102031.69;5039494;27;45542;-78
2022/11/02 07:00:31;;;;;;;;;0.33;0.33;;;;;22.61;54.85;102050.94;5043497;28;45444;-77
2022/11/02 07:03:05;;;;;;;;;0.00;0.00;;;;;22.72;54.92;102054.59;5045430;27;45394;-75
2022/11/02 07:05:32;;;;;;;;;0.00;0.00;;;;;22.81;54.39;102055.66;5041701;27;45391;-74
2022/11/02 07:07:58;;;;;;;;;0.00;0.00;;;;;22.89;54.28;102056.69;5046524;27;45383;-73
2022/11/02 07:10:24;;;;;;;;;1.33;0.00;;;;;22.97;53.87;102063.31;5045142;27;45488;-75
2022/11/02 07:12:54;;;;;;;;;0.00;0.00;;;;;23.04;53.61;102067.19;5042758;27;45483;-75
2022/11/02 07:15:21;;;;;;;;;1.67;1.67;;;;;23.05;53.57;102065.34;5044244;28;45418;-76
2022/11/02 07:17:46;;;;;;;;;0.00;0.00;;;;;23.09;53.03;102075.78;5037519;27;45508;-74
2022/11/02 07:20:12;;;;;;;;;0.00;0.00;;;;;23.13;53.31;102079.94;5052336;27;45496;-74
2022/11/02 07:22:37;;;;;;;;;2.00;1.00;;;;;23.16;53.05;102071.56;5033351;27;45589;-75
2022/11/02 07:25:03;;;;;;;;;1.00;1.00;;;;;23.19;52.85;102069.56;5027106;27;45413;-76
2022/11/02 07:27:28;;;;;;;;;0.00;0.00;;;;;23.22;52.69;102072.00;5046837;27;45367;-80
2022/11/02 07:29:54;;;;;;;;;0.67;0.67;;;;;23.17;52.52;102070.56;5037155;27;47040;-82
2022/11/02 07:32:19;;;;;;;;;1.00;1.00;;;;;23.28;52.14;102072.34;5032964;27;45406;-77
2022/11/02 07:34:44;;;;;;;;;1.00;1.00;;;;;23.26;52.19;102081.59;5032365;27;52983;-79
2022/11/02 07:37:09;;;;;;;;;1.33;1.00;;;;;23.32;51.59;102093.72;5027098;28;45340;-80
2022/11/02 07:39:35;;;;;;;;;1.67;1.00;;;;;23.32;51.23;102091.00;5015398;27;53664;-81
2022/11/02 07:42:00;;;;;;;;;3.00;3.00;;;;;23.33;50.85;102090.06;5020118;27;49058;-80
2022/11/02 07:44:25;;;;;;;;;2.33;2.33;;;;;23.40;50.66;102102.94;5022546;27;45437;-82
2022/11/02 07:46:51;;;;;;;;;2.00;2.00;;;;;23.42;50.32;102117.19;5024730;27;45574;-81
2022/11/02 07:49:16;;;;;;;;;3.00;2.00;;;;;23.42;50.16;102105.50;5033170;27;45446;-81
2022/11/02 07:51:42;;;;;;;;;2.00;2.00;;;;;23.41;49.93;102109.19;5030357;27;46493;-83
2022/11/02 07:54:08;;;;;;;;;2.67;1.67;;;;;23.33;49.88;102093.63;5042037;27;45767;-82
2022/11/02 07:56:33;;;;;;;;;2.00;2.00;;;;;23.39;49.50;102101.22;5021523;27;45507;-80
2022/11/02 07:58:58;;;;;;;;;3.33;3.00;;;;;23.40;49.57;102110.19;5024221;27;45294;-81
2022/11/02 08:01:24;;;;;;;;;4.33;2.00;;;;;23.41;49.42;102109.19;5022595;27;46416;-82
2022/11/02 08:03:49;;;;;;;;;3.33;3.33;;;;;23.40;49.50;102107.47;5025211;27;59115;-79
2022/11/02 08:06:14;;;;;;;;;3.00;3.00;;;;;23.41;49.16;102106.47;5035765;28;45837;-81
2022/11/02 08:08:40;;;;;;;;;5.67;4.00;;;;;23.39;48.92;102108.47;5020023;27;46042;-80
2022/11/02 08:11:07;;;;;;;;;2.33;2.33;;;;;23.41;48.74;102110.06;5024575;27;47052;-83
2022/11/02 08:13:33;;;;;;;;;5.67;4.00;;;;;23.39;48.64;102109.34;5014198;27;45384;-82
2022/11/02 08:15:59;;;;;;;;;4.00;3.00;;;;;23.41;48.25;102110.06;5014316;27;45399;-77
2022/11/02 08:18:26;;;;;;;;;5.00;3.00;;;;;23.40;48.36;102110.19;5020487;27;45652;-77
2022/11/02 08:20:54;;;;;;;;;3.00;3.00;;;;;23.32;48.19;102110.84;5017071;27;45449;-77
2022/11/02 08:23:19;;;;;;;;;4.67;2.67;;;;;23.25;48.04;102112.34;5029275;28;45438;-79
2022/11/02 08:25:47;;;;;;;;;4.00;2.33;;;;;23.23;48.16;102108.94;5023800;27;46057;-78
2022/11/02 08:28:15;;;;;;;;;3.00;2.00;;;;;23.13;48.65;102100.75;5033339;28;45285;-77
2022/11/02 08:30:41;;;;;;;;;2.33;2.00;;;;;23.14;48.67;102099.75;5032282;27;46288;-77
2022/11/02 08:33:12;;;;;;;;;3.33;2.67;;;;;23.19;49.01;102121.03;5011701;28;45393;-77
2022/11/02 08:35:38;;;;;;;;;4.67;4.00;;;;;23.21;49.14;102110.94;5025961;27;45694;-78
2022/11/02 08:38:04;;;;;;;;;4.67;3.00;;;;;23.25;49.30;102120.47;5033518;27;45414;-78
2022/11/02 08:40:30;;;;;;;;;4.67;3.00;;;;;23.28;49.16;102112.09;5029805;28;45547;-78
2022/11/02 08:43:04;;;;;;;;;2.00;2.00;;;;;23.31;49.01;102117.25;5013236;28;45446;-78
2022/11/02 08:45:31;;;;;;;;;3.33;3.00;;;;;23.34;49.14;102105.31;5017878;27;45520;-77
2022/11/02 08:47:56;;;;;;;;;1.67;1.67;;;;;23.38;49.38;102113.03;5028584;27;45466;-74
2022/11/02 08:50:22;;;;;;;;;2.00;2.00;;;;;23.42;49.37;102113.66;5014057;27;64823;-79
2022/11/02 08:52:48;;;;;;;;;5.33;2.67;;;;;23.45;49.42;102115.22;5032843;27;45436;-78
2022/11/02 08:55:13;;;;;;;;;4.67;3.00;;;;;23.46;49.49;102116.94;5032981;27;45357;-78
2022/11/02 08:57:45;;;;;;;;;5.67;3.00;;;;;23.47;49.48;102105.97;5027825;27;45565;-77
2022/11/02 09:00:11;;;;;;;;;5.00;2.00;;;;;23.52;49.50;102110.97;5029165;27;46179;-78
2022/11/02 09:02:36;;;;;;;;;4.00;4.00;;;;;23.57;49.67;102118.72;5033529;27;45586;-79
2022/11/02 09:05:02;;;;;;;;;2.00;2.00;;;;;23.58;49.55;102115.84;5015452;27;46855;-78
2022/11/02 09:07:27;;;;;;;;;2.33;1.00;;;;;23.61;49.38;102115.56;5012964;28;45530;-75
2022/11/02 09:09:52;;;;;;;;;3.33;2.00;;;;;23.65;49.62;102127.00;5014264;27;55957;-75
2022/11/02 09:12:18;;;;;;;;;2.67;2.00;;;;;23.68;49.45;102127.59;5032131;27;50313;-76
2022/11/02 09:14:43;;;;;;;;;2.00;1.33;;;;;23.68;49.42;102127.59;5032243;27;45428;-78
2022/11/02 09:17:08;;;;;;;;;2.00;2.00;;;;;23.71;49.68;102125.59;5029720;27;46716;-78
2022/11/02 09:19:34;;;;;;;;;3.00;2.00;;;;;23.71;49.34;102125.59;5028827;27;46078;-78
2022/11/02 09:21:59;;;;;;;;;2.67;2.67;;;;;23.70;49.68;102127.44;5026190;27;47382;-79
2022/11/02 09:24:25;;;;;;;;;3.67;3.33;;;;;23.72;49.76;102119.19;5031757;28;45463;-77
2022/11/02 09:26:51;;;;;;;;;1.67;1.33;;;;;23.76;49.81;102126.06;5012243;28;53353;-79
2022/11/02 09:29:17;;;;;;;;;2.00;2.00;;;;;23.79;49.84;102113.06;5032568;28;45805;-78
2022/11/02 09:31:42;;;;;;;;;2.33;1.67;;;;;23.86;49.98;102115.25;5019585;28;45321;-79
2022/11/02 09:34:07;;;;;;;;;3.00;2.00;;;;;23.93;49.72;102116.41;5029374;28;45456;-82
2022/11/02 09:36:33;;;;;;;;;2.00;2.00;;;;;23.99;50.07;102101.44;5033313;28;45318;-80
2022/11/02 09:38:58;;;;;;;;;1.33;1.33;;;;;24.07;49.74;102109.72;5032365;28;45429;-83
2022/11/02 09:41:38;;;;;;;;;1.00;1.00;;;;;24.16;49.80;102111.63;5032297;28;45453;-78
2022/11/02 09:44:13;;;;;;;;;2.00;2.00;;;;;24.25;49.70;102104.53;5038471;28;45366;-77
2022/11/02 09:46:41;;;;;;;;;2.33;2.00;;;;;24.32;49.57;102102.94;5021357;28;45456;-78
2022/11/02 09:49:15;;;;;;;;;1.33;1.33;;;;;24.42;49.52;102096.69;5031144;27;45399;-78
2022/11/02 09:51:47;;;;;;;;;1.00;1.00;;;;;24.40;49.78;102082.41;5028081;27;45428;-78
2022/11/02 09:54:24;;;;;;;;;4.00;2.00;;;;;24.54;49.62;102098.25;5032207;27;45400;-81
2022/11/02 09:56:53;;;;;;;;;3.00;3.00;;;;;24.58;49.41;102088.84;5029245;27;45618;-79
2022/11/02 09:59:22;;;;;;;;;2.33;1.00;;;;;24.64;49.40;102092.81;5032058;28;46645;-78
2022/11/02 10:01:50;;;;;;;;;3.67;2.00;;;;;24.69;49.41;102093.25;5020045;27;45459;-78
2022/11/02 10:04:43;;;;;;;;;2.00;1.67;;;;;24.72;48.53;102098.41;5032368;27;45409;-76
2022/11/02 10:07:45;;;;;;;;;2.33;1.00;;;;;24.74;48.63;102099.09;5031424;27;45467;-79
2022/11/02 10:10:39;;;;;;;;;4.33;3.00;;;;;24.74;48.81;102096.38;5013202;27;47096;-81
2022/11/02 10:13:32;;;;;;;;;1.33;1.33;;;;;24.77;48.80;102088.97;5028107;27;45402;-80
2022/11/02 10:16:14;;;;;;;;;1.33;1.33;;;;;24.74;48.69;102090.94;5033368;27;45431;-79
2022/11/02 10:18:41;;;;;;;;;1.00;1.00;;;;;24.72;48.86;102083.94;5031988;27;45432;-81
2022/11/02 10:21:14;;;;;;;;;2.00;2.00;;;;;24.71;48.94;102090.38;5030255;27;45488;-80
2022/11/02 10:23:47;;;;;;;;;3.33;2.00;;;;;24.74;49.14;102088.22;5030844;27;45360;-82
2022/11/02 10:26:42;;;;;;;;;1.33;1.33;;;;;24.78;48.89;102075.25;5028631;27;45450;-81
2022/11/02 10:29:10;;;;;;;;;2.00;2.00;;;;;24.81;49.18;102083.09;5019192;27;45508;-78
2022/11/02 10:31:36;;;;;;;;;1.00;1.00;;;;;24.82;48.52;102082.09;5029209;27;45569;-81
2022/11/02 10:34:21;;;;;;;;;2.00;2.00;;;;;24.88;48.66;102085.28;5025459;27;45463;-81
2022/11/02 10:36:55;;;;;;;;;3.00;1.00;;;;;24.90;48.79;102084.13;5005300;28;45959;-78
2022/11/02 10:39:34;;;;;;;;;1.33;1.33;;;;;24.92;48.46;102083.94;5020879;27;45519;-77
2022/11/02 10:42:41;;;;;;;;;3.67;2.00;;;;;24.97;48.82;102089.84;5019853;27;45746;-77
2022/11/02 10:45:29;;;;;;;;;2.00;1.67;;;;;25.04;48.55;102079.22;5066132;27;45563;-78
2022/11/02 10:48:12;;;;;;;;;3.00;1.00;;;;;25.10;48.68;102087.63;5067317;27;45740;-77
2022/11/02 10:50:47;;;;;;;;;4.00;2.33;;;;;25.12;48.43;102080.22;5066416;27;45493;-77
2022/11/02 10:53:17;;;;;;;;;2.00;2.00;;;;;25.20;48.46;102087.63;5062703;27;45762;-78
2022/11/02 10:55:51;;;;;;;;;2.00;2.00;;;;;25.24;48.63;102072.75;5066735;27;45499;-77
2022/11/02 10:58:20;;;;;;;;;1.67;1.67;;;;;25.30;48.55;102082.13;5063669;27;45500;-80
2022/11/02 11:00:46;;;;;;;;;1.00;1.00;;;;;25.37;48.18;102079.69;5068536;27;45569;-79
2022/11/02 11:03:15;;;;;;;;;1.67;1.67;;;;;25.41;47.89;102070.25;5071361;27;47568;-78
2022/11/02 11:05:49;;;;;;;;;2.00;2.00;;;;;25.46;48.42;102067.09;5073399;27;45688;-78
2022/11/02 11:08:30;;;;;;;;;1.00;1.00;;;;;25.49;48.17;102067.63;5050210;27;45409;-78
2022/11/02 11:11:09;;;;;;;;;1.33;1.33;;;;;25.51;48.26;102062.06;5052549;27;45690;-79
2022/11/02 11:13:35;;;;;;;;;2.00;2.00;;;;;25.55;48.13;102065.31;5069068;27;45440;-78
2022/11/02 11:16:02;;;;;;;;;4.33;2.00;;;;;25.56;48.16;102057.06;5071057;27;45593;-78
2022/11/02 11:18:28;;;;;;;;;1.00;1.00;;;;;25.59;47.65;102066.78;5070599;27;45478;-77
2022/11/02 11:20:54;;;;;;;;;2.00;2.00;;;;;25.60;47.71;102055.75;5068892;27;45419;-79
2022/11/02 11:23:23;;;;;;;;;1.00;1.00;;;;;25.63;47.79;102051.88;5012201;27;46015;-77
2022/11/02 11:26:03;;;;;;;;;1.00;1.00;;;;;25.64;47.85;102068.03;5030929;27;45498;-75
2022/11/02 11:28:36;;;;;;;;;3.67;3.00;;;;;25.68;46.87;102062.28;5029295;27;45441;-79
2022/11/02 11:31:09;;;;;;;;;2.00;2.00;;;;;25.68;46.51;102067.72;5023735;27;45854;-79
2022/11/02 11:33:56;;;;;;;;;3.33;3.33;;;;;25.64;45.46;102059.00;5017123;27;47256;-78
2022/11/02 11:36:27;;;;;;;;;4.00;4.00;;;;;25.58;45.77;102055.03;5027745;27;45418;-78
2022/11/02 11:38:57;;;;;;;;;6.00;6.00;;;;;25.52;45.69;102050.16;5032008;27;45462;-78
2022/11/02 11:41:22;;;;;;;;;6.67;5.67;;;;;25.46;45.07;102054.34;5040146;27;45524;-78
2022/11/02 11:43:50;;;;;;;;;5.00;3.33;;;;;25.42;45.14;102049.38;5026938;27;46407;-78
2022/11/02 11:46:16;;;;;;;;;3.67;3.67;;;;;25.37;45.32;102042.50;5030966;27;45448;-78
2022/11/02 11:48:44;;;;;;;;;4.00;1.33;;;;;25.35;45.32;102039.09;5021924;27;45446;-78
2022/11/02 11:51:25;;;;;;;;;4.67;4.67;;;;;25.34;44.78;102031.94;5028477;28;45753;-78
2022/11/02 11:54:14;;;;;;;;;5.67;4.67;;;;;25.31;44.70;102017.78;5028388;27;46085;-79
2022/11/02 11:56:39;;;;;;;;;7.00;5.00;;;;;25.33;44.56;102018.50;5029402;27;45422;-78
2022/11/02 11:59:37;;;;;;;;;5.33;4.00;;;;;25.30;44.74;102008.78;5014511;27;45415;-76
2022/11/02 12:02:20;;;;;;;;;3.00;3.00;;;;;25.29;44.30;102009.78;5028393;28;45480;-78
2022/11/02 12:04:45;;;;;;;;;3.67;3.67;;;;;25.28;44.26;102002.66;5027183;27;45937;-78
2022/11/02 12:07:27;;;;;;;;;1.67;0.67;;;;;25.26;45.59;101993.81;5030514;27;45657;-78
2022/11/02 12:10:10;;;;;;;;;2.00;2.00;;;;;25.20;44.67;101995.25;5027923;27;45488;-79
2022/11/02 12:12:51;;;;;;;;;4.00;4.00;;;;;25.17;45.96;101998.25;5027432;27;45533;-74
2022/11/02 12:15:35;;;;;;;;;3.33;2.00;;;;;25.11;44.40;101991.56;5026536;27;46883;-78
2022/11/02 12:18:31;;;;;;;;;4.00;4.00;;;;;25.04;44.47;101987.72;5028388;27;45617;-79
2022/11/02 12:21:32;;;;;;;;;2.00;2.00;;;;;24.95;44.67;101986.78;5029879;27;45453;-74
2022/11/02 12:24:00;;;;;;;;;4.33;2.33;;;;;24.93;44.29;101982.50;5029225;27;45603;-79
2022/11/02 12:26:36;;;;;;;;;4.33;3.67;;;;;24.94;43.88;101974.22;5026194;27;46269;-80
2022/11/02 12:29:39;;;;;;;;;3.00;3.00;;;;;24.92;43.73;101969.91;5025020;27;47027;-79
2022/11/02 12:32:13;;;;;;;;;5.67;3.00;;;;;24.89;44.99;101970.22;5026808;27;45435;-81
2022/11/02 12:34:53;;;;;;;;;5.00;5.00;;;;;24.84;45.31;101966.06;5030276;27;45527;-84
2022/11/02 12:37:48;;;;;;;;;2.67;2.67;;;;;24.84;45.44;101960.66;5011392;28;46254;-83
2022/11/02 12:40:22;;;;;;;;;2.33;2.33;;;;;24.81;45.34;101941.06;5028820;27;45413;-82
2022/11/02 12:42:48;;;;;;;;;4.00;4.00;;;;;24.80;45.73;101950.22;5013449;27;45435;-82
2022/11/02 12:45:19;;;;;;;;;3.00;3.00;;;;;24.81;45.96;101944.59;5020166;27;45447;-83
2022/11/02 12:47:55;;;;;;;;;3.67;3.33;;;;;24.82;45.98;101935.47;5032471;27;48406;-82
2022/11/02 12:50:31;;;;;;;;;5.00;3.00;;;;;24.90;46.08;101931.19;5032486;27;45531;-83
2022/11/02 12:53:39;;;;;;;;;2.67;2.67;;;;;24.94;46.38;101928.03;5033698;27;45482;-78
2022/11/02 12:56:09;;;;;;;;;3.00;3.00;;;;;25.03;46.04;101922.69;5031229;27;45775;-81
2022/11/02 12:58:38;;;;;;;;;2.00;2.00;;;;;25.08;46.37;101921.25;5031773;27;46106;-81
2022/11/02 13:01:42;;;;;;;;;8.00;4.33;;;;;25.17;46.67;101921.34;5025245;27;45465;-83
2022/11/02 13:04:12;;;;;;;;;2.00;2.00;;;;;25.25;46.61;101913.28;5024656;27;45562;-82
2022/11/02 13:06:43;;;;;;;;;3.33;3.33;;;;;25.31;46.29;101904.53;5042271;28;45474;-82
2022/11/02 13:09:27;;;;;;;;;3.00;3.00;;;;;25.38;46.35;101905.63;5034026;27;45403;-80
2022/11/02 13:12:08;;;;;;;;;5.00;3.00;;;;;25.45;46.57;101903.16;5028717;27;45705;-81
2022/11/02 13:14:43;;;;;;;;;4.00;2.67;;;;;25.52;46.18;101895.22;5030674;27;45446;-81
2022/11/02 13:17:19;;;;;;;;;6.00;2.67;;;;;25.57;46.59;101884.78;5030687;27;45436;-82
2022/11/02 13:19:49;;;;;;;;;2.00;2.00;;;;;25.60;46.88;101862.75;5028656;27;45664;-80
2022/11/02 13:22:17;;;;;;;;;4.33;3.00;;;;;25.77;46.41;101868.31;5030121;27;45533;-77
2022/11/02 13:24:47;;;;;;;;;2.00;2.00;;;;;25.82;45.21;101865.97;5028550;27;45471;-80
2022/11/02 13:27:28;;;;;;;;;4.67;3.00;;;;;25.85;45.72;101857.50;5027812;27;45579;-80
2022/11/02 13:29:58;;;;;;;;;3.00;3.00;;;;;25.90;45.46;101851.59;5031844;27;45513;-80
2022/11/02 13:32:34;;;;;;;;;2.00;2.00;;;;;25.95;45.08;101853.84;5029199;27;45495;-80
2022/11/02 13:35:05;;;;;;;;;2.00;2.00;;;;;25.92;45.42;101844.97;5028564;27;45839;-79
2022/11/02 13:37:40;;;;;;;;;3.33;2.67;;;;;25.93;45.35;101845.84;5026072;27;45616;-82
2022/11/02 13:40:14;;;;;;;;;3.00;3.00;;;;;25.95;45.33;101843.81;5030328;28;45992;-82
2022/11/02 13:42:49;;;;;;;;;2.00;2.00;;;;;25.95;45.88;101838.34;5022586;27;45572;-80
2022/11/02 13:45:44;;;;;;;;;3.00;3.00;;;;;25.94;45.50;101823.06;5011414;27;46257;-81
2022/11/02 13:48:27;;;;;;;;;2.00;2.00;;;;;25.95;45.33;101816.59;5021215;28;45334;-81
2022/11/02 13:50:57;;;;;;;;;1.67;1.67;;;;;25.96;45.84;101820.19;5022277;27;45616;-80
2022/11/02 13:53:38;;;;;;;;;2.67;1.33;;;;;25.95;46.04;101822.03;5025913;27;45406;-80
2022/11/02 13:56:10;;;;;;;;;2.67;2.00;;;;;25.94;45.27;101819.50;5023025;27;45416;-80
2022/11/02 13:58:47;;;;;;;;;6.00;4.00;;;;;25.93;46.11;101810.47;5009001;27;45686;-81
2022/11/02 14:01:17;;;;;;;;;2.00;2.00;;;;;25.95;45.89;101810.31;5014394;27;47594;-81
2022/11/02 14:04:02;;;;;;;;;2.00;2.00;;;;;25.92;45.44;101809.63;5016851;27;45471;-79
2022/11/02 14:06:30;;;;;;;;;1.00;1.00;;;;;25.88;46.06;101804.66;5028964;27;45516;-80
2022/11/02 14:09:02;;;;;;;;;2.33;2.00;;;;;25.86;46.21;101804.81;5024916;27;45346;-80
2022/11/02 14:11:46;;;;;;;;;5.00;5.00;;;;;25.85;43.25;101808.56;5025721;27;46117;-78
2022/11/02 14:14:20;;;;;;;;;5.00;3.33;;;;;25.80;42.49;101805.47;5023366;28;45641;-78
2022/11/02 14:16:48;;;;;;;;;5.00;5.00;;;;;25.74;43.18;101803.34;5025823;27;45622;-87
2022/11/02 14:19:16;;;;;;;;;4.33;3.00;;;;;25.63;43.55;101797.16;5024088;27;45367;-82
2022/11/02 14:21:44;;;;;;;;;1.00;1.00;;;;;25.52;43.66;101791.94;5028947;27;46063;-83
2022/11/02 14:24:33;;;;;;;;;4.00;4.00;;;;;25.49;43.75;101795.84;5033816;27;45639;-79
2022/11/02 14:27:00;;;;;;;;;3.33;1.33;;;;;25.47;44.56;101795.13;4998605;28;45455;-91
2022/11/02 14:29:34;;;;;;;;;3.00;3.00;;;;;25.45;44.08;101786.28;5029193;27;45503;-77
2022/11/02 14:32:09;;;;;;;;;5.00;3.33;;;;;25.43;44.67;101782.88;5027790;28;46386;-81
2022/11/02 14:34:43;;;;;;;;;2.00;2.00;;;;;25.45;44.90;101782.69;5030220;27;45397;-85
2022/11/02 14:37:46;;;;;;;;;3.00;2.33;;;;;25.45;44.50;101779.97;5028982;28;45459;-84
2022/11/02 14:40:29;;;;;;;;;4.00;4.00;;;;;25.45;44.94;101783.56;5012477;27;45393;-84
2022/11/02 14:43:02;;;;;;;;;3.33;3.33;;;;;25.45;44.96;101778.13;5029010;27;45461;-81
2022/11/02 14:45:45;;;;;;;;;3.33;3.00;;;;;25.45;44.81;101785.41;5031815;27;45848;-83
2022/11/02 14:48:15;;;;;;;;;4.67;4.00;;;;;25.40;44.84;101772.31;5032569;27;45555;-85
2022/11/02 14:50:42;;;;;;;;;6.00;2.33;;;;;25.42;45.15;101772.16;5034150;27;45488;-85
2022/11/02 14:53:22;;;;;;;;;1.67;1.67;;;;;25.41;45.28;101773.19;5027717;27;45358;-84
2022/11/02 14:55:53;;;;;;;;;3.33;2.00;;;;;25.37;45.62;101773.47;5032641;28;45497;-88
2022/11/02 14:58:21;;;;;;;;;2.67;2.67;;;;;25.36;45.48;101771.78;5035552;27;45408;-79
2022/11/02 15:00:46;;;;;;;;;2.67;2.00;;;;;25.35;45.36;101772.78;5025965;27;45392;-85
2022/11/02 15:03:25;;;;;;;;;4.33;2.67;;;;;25.35;45.54;101780.09;5023932;27;46163;-82
2022/11/02 15:06:22;;;;;;;;;2.00;2.00;;;;;25.34;45.93;101778.38;5024555;27;45730;-82
2022/11/02 15:08:58;;;;;;;;;3.00;3.00;;;;;25.33;46.13;101769.38;5016760;27;45462;-78
2022/11/02 15:11:47;;;;;;;;;2.33;2.33;;;;;25.35;45.74;101775.50;5012625;27;45501;-76
2022/11/02 15:14:34;;;;;;;;;2.00;2.00;;;;;25.34;43.35;101781.94;5014566;27;45596;-77
2022/11/02 15:17:02;;;;;;;;;2.00;2.00;;;;;25.31;43.16;101774.13;5025646;27;45448;-76
2022/11/02 15:19:52;;;;;;;;;2.00;2.00;;;;;25.27;43.47;101767.28;5024089;27;45458;-80
2022/11/02 15:22:55;;;;;;;;;3.33;2.00;;;;;25.18;43.97;101763.59;5025135;27;45533;-81
2022/11/02 15:25:35;;;;;;;;;3.00;3.00;;;;;25.13;43.90;101755.94;5020600;27;45450;-83
2022/11/02 15:28:18;;;;;;;;;1.00;1.00;;;;;25.12;44.24;101756.09;5023480;27;45403;-82
2022/11/02 15:30:48;;;;;;;;;3.00;2.00;;;;;25.11;43.93;101757.97;5021704;27;45429;-81
2022/11/02 15:33:21;;;;;;;;;2.00;2.00;;;;;25.10;44.22;101753.53;5017951;27;46137;-81
2022/11/02 15:35:52;;;;;;;;;1.00;1.00;;;;;25.09;44.44;101749.09;5018864;28;45443;-79
2022/11/02 15:38:23;;;;;;;;;3.00;2.00;;;;;25.04;44.56;101742.41;5028313;27;45476;-79
2022/11/02 15:41:32;;;;;;;;;2.00;2.00;;;;;25.10;44.77;101748.09;5018652;27;45311;-81
2022/11/02 15:44:20;;;;;;;;;2.33;2.00;;;;;25.09;45.01;101754.53;5019543;27;45508;-81
2022/11/02 15:47:07;;;;;;;;;1.00;1.00;;;;;25.11;44.90;101746.25;5018637;28;45779;-81
2022/11/02 15:49:32;;;;;;;;;2.00;2.00;;;;;25.11;44.92;101747.09;5020910;27;45537;-83
2022/11/02 15:52:12;;;;;;;;;3.33;3.00;;;;;25.13;45.05;101744.22;5019050;27;45480;-83
2022/11/02 15:54:53;;;;;;;;;3.00;3.00;;;;;25.15;45.28;101744.06;5018380;28;45384;-81
2022/11/02 15:57:23;;;;;;;;;6.33;3.67;;;;;25.20;43.99;101741.72;5005182;27;47181;-87
2022/11/02 16:00:00;;;;;;;;;3.00;3.00;;;;;25.11;44.39;101729.94;5026325;27;45402;-80
2022/11/02 16:02:32;;;;;;;;;2.33;2.00;;;;;25.19;44.84;101735.47;5026145;27;45526;-76
2022/11/02 16:05:00;;;;;;;;;3.67;2.00;;;;;25.21;44.40;101735.28;5015921;27;45370;-77
2022/11/02 16:07:27;;;;;;;;;3.00;3.00;;;;;25.20;45.08;101722.72;5033336;27;45857;-77
2022/11/02 16:09:53;;;;;;;;;2.33;2.33;;;;;25.20;44.86;101725.44;5028669;27;45398;-76
2022/11/02 16:12:23;;;;;;;;;3.00;1.67;;;;;25.18;45.29;101714.72;5083801;27;45554;-82
2022/11/02 16:14:57;;;;;;;;;3.67;2.33;;;;;25.20;44.84;101714.56;5035342;27;45490;-78
2022/11/02 16:17:30;;;;;;;;;8.33;2.33;;;;;25.19;45.51;101716.44;5027599;27;45388;-80
2022/11/02 16:20:10;;;;;;;;;2.67;2.67;;;;;25.17;45.36;101709.47;5032703;27;45689;-77
2022/11/02 16:22:36;;;;;;;;;3.33;2.00;;;;;25.21;45.16;101702.69;5030655;27;45769;-80
2022/11/02 16:25:09;;;;;;;;;1.00;1.00;;;;;25.20;45.54;101709.13;5022180;27;45739;-77
2022/11/02 16:27:37;;;;;;;;;2.00;2.00;;;;;25.18;45.57;101705.72;5015324;27;45343;-78
2022/11/02 16:30:03;;;;;;;;;3.67;2.67;;;;;25.13;45.15;101695.31;5024217;27;45846;-81
2022/11/02 16:32:29;;;;;;;;;3.00;2.00;;;;;25.15;45.66;101698.75;5020017;27;45504;-74
2022/11/02 16:34:57;;;;;;;;;3.33;2.67;;;;;25.15;46.00;101708.75;5023277;27;45543;-74
2022/11/02 16:37:23;;;;;;;;;5.33;2.00;;;;;25.12;46.10;101708.06;5017270;27;46410;-77
2022/11/02 16:39:49;;;;;;;;;2.33;1.67;;;;;25.11;45.91;101703.66;5021994;27;45420;-81
2022/11/02 16:42:20;;;;;;;;;4.00;2.33;;;;;25.16;45.92;101707.72;4999510;27;45380;-75
2022/11/02 16:45:00;;;;;;;;;6.67;2.67;;;;;25.13;46.25;101704.31;5018118;27;45804;-82
2022/11/02 16:47:36;;;;;;;;;6.00;3.33;;;;;25.15;45.96;101704.19;4999247;27;46435;-77
2022/11/02 16:50:03;;;;;;;;;3.67;3.33;;;;;25.10;44.69;101699.19;5030208;27;45501;-74
2022/11/02 16:52:35;;;;;;;;;7.33;5.00;;;;;25.06;44.94;101688.81;5031069;27;46698;-81
2022/11/02 16:55:01;;;;;;;;;8.00;5.67;;;;;25.11;44.05;101709.06;5033927;27;45717;-85
2022/11/02 16:57:30;;;;;;;;;7.00;7.00;;;;;25.06;44.16;101697.78;5031464;27;46633;-83
2022/11/02 17:00:03;;;;;;;;;8.00;7.67;;;;;25.02;43.69;101693.72;5032775;27;45520;-77
2022/11/02 17:02:31;;;;;;;;;4.00;4.00;;;;;25.03;43.85;101699.97;5028625;27;45495;-75
2022/11/02 17:04:58;;;;;;;;;6.67;5.00;;;;;25.03;44.15;101695.41;5026512;27;45399;-79
2022/11/02 17:07:29;;;;;;;;;6.67;6.67;;;;;25.07;43.73;101691.38;5014306;28;46143;-74
2022/11/02 17:09:57;;;;;;;;;7.00;7.00;;;;;25.06;44.65;101686.94;5025861;27;45428;-75
2022/11/02 17:12:34;;;;;;;;;12.00;7.33;;;;;25.02;45.33;101681.97;5022588;28;45524;-77
2022/11/02 17:15:03;;;;;;;;;16.00;10.00;;;;;24.93;46.43;101670.19;5020538;27;45646;-77
2022/11/02 17:17:34;;;;;;;;;18.00;12.00;;;;;24.97;47.04;101677.88;5029875;28;46888;-79
2022/11/02 17:20:08;;;;;;;;;18.00;13.67;;;;;24.95;47.16;101681.75;5031053;28;45467;-78
2022/11/02 17:22:46;;;;;;;;;9.67;8.00;;;;;24.92;46.48;101674.78;5049722;27;45474;-79
2022/11/02 17:25:24;;;;;;;;;14.67;13.33;;;;;24.84;46.51;101656.53;5049278;27;45533;-77
2022/11/02 17:27:51;;;;;;;;;14.00;9.00;;;;;24.90;46.35;101668.66;5021804;27;47193;-76
2022/11/02 17:30:29;;;;;;;;;10.00;8.67;;;;;24.90;46.56;101665.94;5030149;27;47105;-78
2022/11/02 17:33:06;;;;;;;;;13.33;12.00;;;;;24.92;46.48;101671.19;5014579;27;45368;-77
2022/11/02 17:35:32;;;;;;;;;14.00;9.33;;;;;24.85;46.36;101660.97;5014793;28;45338;-76
2022/11/02 17:37:57;;;;;;;;;11.00;7.67;;;;;24.93;46.18;101672.91;5022019;27;45477;-75
2022/11/02 17:40:23;;;;;;;;;8.67;8.67;;;;;24.95;46.38;101669.03;5023202;27;45375;-76
2022/11/02 17:42:58;;;;;;;;;13.33;8.00;;;;;24.97;46.13;101674.31;5028984;27;45398;-77
2022/11/02 17:45:29;;;;;;;;;10.00;8.00;;;;;25.00;46.34;101672.13;5018283;27;45474;-75
2022/11/02 17:47:57;;;;;;;;;14.33;10.33;;;;;25.01;46.34;101675.69;5034707;27;46081;-76
2022/11/02 17:50:24;;;;;;;;;9.00;9.00;;;;;25.02;46.33;101677.41;5016440;27;45505;-77
2022/11/02 17:52:52;;;;;;;;;8.67;8.33;;;;;25.06;46.31;101681.50;5027346;27;45564;-78
2022/11/02 17:55:20;;;;;;;;;9.33;7.33;;;;;25.07;46.54;101674.22;5008341;27;45702;-77
2022/11/02 17:57:46;;;;;;;;;8.00;8.00;;;;;25.06;46.44;101681.50;5010711;27;47229;-77
2022/11/02 18:00:13;;;;;;;;;7.33;5.00;;;;;25.03;46.28;101676.41;5019679;27;45581;-76
2022/11/02 18:02:39;;;;;;;;;12.67;10.00;;;;;25.06;46.45;101680.66;5024723;27;45492;-74